Time;durP1;ratioP1;P1;durP2;ratioP2;P2;SDS_P1;SDS_P2;PMS_P1;PMS_P2;Temp;Humidity;BMP_temperature;BMP_pressure;BME280_temperature;BME280_humidity;BME280_pressure;Samples;Min_cycle;Max_cycle;Signal;HPM_P1;HPM_P2
2021/08/07 00:00:32;;;;;;;10.30;2.05;;;;;;;30.66;50.87;100928.00;5113588;27;66316;-31
2021/08/07 00:03:02;;;;;;;9.13;2.47;;;;;;;30.61;51.36;100914.28;5115296;27;69957;-32
2021/08/07 00:05:33;;;;;;;10.15;2.85;;;;;;;30.77;52.43;100929.19;5116399;27;66113;-30
2021/08/07 00:08:04;;;;;;;4.75;3.10;;;;;;;30.78;53.78;100920.00;5113943;27;69422;-33
2021/08/07 00:10:35;;;;;;;8.30;3.70;;;;;;;30.87;56.05;100935.81;5113725;27;65979;-32
2021/08/07 00:13:07;;;;;;;4.85;3.47;;;;;;;30.87;57.12;100937.66;5114646;27;69613;-31
2021/08/07 00:15:38;;;;;;;6.13;3.90;;;;;;;30.99;56.17;100949.47;5108264;27;65357;-30
2021/08/07 00:18:08;;;;;;;11.25;4.40;;;;;;;31.03;56.74;100939.03;5109022;27;69455;-32
2021/08/07 00:20:39;;;;;;;12.07;4.05;;;;;;;31.07;57.55;100930.25;5109673;27;66694;-33
2021/08/07 00:23:10;;;;;;;7.55;3.75;;;;;;;31.06;57.79;100928.56;5115948;27;70071;-31
2021/08/07 00:25:41;;;;;;;6.38;3.50;;;;;;;31.15;58.41;100932.69;5112333;27;66116;-32
2021/08/07 00:28:13;;;;;;;7.32;3.72;;;;;;;31.20;57.69;100934.72;5109031;27;70928;-31
2021/08/07 00:30:43;;;;;;;14.48;3.67;;;;;;;31.19;59.43;100927.63;5111965;27;66194;-31
2021/08/07 00:33:15;;;;;;;14.68;4.38;;;;;;;31.20;59.78;100933.88;5114035;27;69675;-31
2021/08/07 00:35:46;;;;;;;9.38;4.90;;;;;;;31.26;59.53;100938.41;5097574;27;64983;-31
2021/08/07 00:38:16;;;;;;;15.88;4.97;;;;;;;31.35;60.51;100937.09;5114113;27;69736;-31
2021/08/07 00:40:47;;;;;;;14.50;6.05;;;;;;;31.38;59.67;100947.53;5111845;27;65653;-32
2021/08/07 00:43:18;;;;;;;11.13;5.57;;;;;;;31.41;60.05;100955.22;5125691;27;69654;-31
2021/08/07 00:45:51;;;;;;;22.77;5.47;;;;;;;31.44;60.72;100954.75;5112362;27;65736;-31
2021/08/07 00:48:27;;;;;;;14.57;5.30;;;;;;;31.46;60.73;100955.38;5114076;27;69781;-30
2021/08/07 00:51:00;;;;;;;14.65;5.22;;;;;;;31.44;60.26;100949.34;5108873;27;65603;-31
2021/08/07 00:53:32;;;;;;;13.80;5.25;;;;;;;31.53;59.99;100950.72;5115439;27;70393;-31
2021/08/07 00:56:08;;;;;;;17.20;3.95;;;;;;;31.58;60.86;100956.28;5111699;27;66014;-31
2021/08/07 00:58:48;;;;;;;10.15;4.20;;;;;;;31.61;60.39;100966.69;5108233;27;70394;-31
2021/08/07 01:01:26;;;;;;;9.27;3.60;;;;;;;31.65;60.36;100960.81;5110458;27;65252;-31
2021/08/07 01:03:59;;;;;;;7.65;3.50;;;;;;;31.71;60.75;100962.66;5113558;27;69280;-31
2021/08/07 01:06:53;;;;;;;8.98;3.45;;;;;;;31.71;61.84;100963.47;5126151;27;65484;-31
2021/08/07 01:09:49;;;;;;;8.35;3.10;;;;;;;31.44;62.23;100927.66;5109950;27;69550;-32
2021/08/07 01:12:32;;;;;;;6.90;2.70;;;;;;;31.76;61.92;100965.50;5109964;27;66661;-31
2021/08/07 01:15:08;;;;;;;4.15;2.65;;;;;;;31.57;60.77;100940.25;5114034;27;70030;-31
2021/08/07 01:17:44;;;;;;;11.38;2.85;;;;;;;31.59;60.66;100921.88;5112159;27;65997;-33
2021/08/07 01:20:42;;;;;;;5.80;2.83;;;;;;;31.85;61.91;100972.31;5131473;27;69563;-33
2021/08/07 01:23:55;;;;;;;5.68;2.85;;;;;;;31.85;61.89;100983.16;5111268;27;65241;-32
2021/08/07 01:26:45;;;;;;;8.40;3.22;;;;;;;31.91;61.47;100976.88;5112981;27;70284;-31
2021/08/07 01:29:20;;;;;;;11.60;3.22;;;;;;;31.93;60.74;100972.06;5112988;27;66600;-31
2021/08/07 01:32:00;;;;;;;8.52;3.53;;;;;;;31.96;60.87;100971.59;5109077;27;69158;-32
2021/08/07 01:34:40;;;;;;;4.47;3.05;;;;;;;31.99;61.39;100982.00;5107668;27;66552;-31
2021/08/07 01:37:19;;;;;;;10.02;3.58;;;;;;;31.77;60.84;100940.06;5110782;27;70237;-31
2021/08/07 01:40:25;;;;;;;8.05;3.22;;;;;;;32.03;60.92;100983.19;5095390;27;66057;-31
2021/08/07 01:43:05;;;;;;;7.65;3.00;;;;;;;32.07;61.25;100985.44;5105306;27;69974;-31
2021/08/07 01:45:40;;;;;;;6.78;2.35;;;;;;;32.08;60.74;100989.84;5108658;27;66326;-32
2021/08/07 01:48:54;;;;;;;6.95;3.22;;;;;;;31.96;61.94;100976.19;5110317;27;69934;-34
2021/08/07 01:51:47;;;;;;;12.10;3.03;;;;;;;32.12;60.99;100980.19;5108441;27;66133;-35
2021/08/07 01:54:35;;;;;;;10.80;2.85;;;;;;;32.15;60.71;100975.16;5116744;27;69931;-33
2021/08/07 01:57:13;;;;;;;9.52;2.80;;;;;;;32.10;61.23;100974.16;5095165;27;66086;-33
2021/08/07 01:59:46;;;;;;;5.43;2.60;;;;;;;31.95;61.38;100953.63;5097038;27;69356;-33
2021/08/07 02:02:19;;;;;;;9.55;2.90;;;;;;;32.14;60.97;100978.06;5109979;27;66703;-33
2021/08/07 02:04:55;;;;;;;8.43;3.30;;;;;;;32.13;60.99;100971.00;5111441;27;70128;-34
2021/08/07 02:07:32;;;;;;;5.35;3.10;;;;;;;32.18;60.97;100987.41;5115037;27;66956;-34
2021/08/07 02:10:08;;;;;;;7.97;3.15;;;;;;;32.21;61.19;100984.25;5109042;27;69927;-34
2021/08/07 02:12:46;;;;;;;12.52;3.15;;;;;;;32.24;60.62;100984.63;5113664;27;65406;-32
2021/08/07 02:15:22;;;;;;;8.90;2.80;;;;;;;32.26;60.59;100981.66;5105904;27;70590;-35
2021/08/07 02:18:02;;;;;;;4.55;2.72;;;;;;;32.30;60.25;100976.63;5098345;27;66532;-32
2021/08/07 02:20:55;;;;;;;6.90;2.40;;;;;;;32.10;60.44;100944.31;5127452;27;70146;-32
2021/08/07 02:23:29;;;;;;;8.18;2.95;;;;;;;32.35;60.69;100980.31;5095784;27;65198;-34
2021/08/07 02:26:03;;;;;;;11.52;3.00;;;;;;;32.12;61.25;100925.91;5117551;27;70023;-35
2021/08/07 02:28:45;;;;;;;11.00;2.67;;;;;;;32.15;60.34;100920.00;5105112;27;66799;-35
2021/08/07 02:31:19;;;;;;;5.60;2.10;;;;;;;32.40;61.10;100961.47;5113160;27;69296;-33
2021/08/07 02:33:52;;;;;;;9.30;2.55;;;;;;;32.43;60.50;100961.00;5092531;27;66089;-34
2021/08/07 02:36:24;;;;;;;4.28;2.17;;;;;;;32.42;60.47;100970.19;5113586;27;69692;-30
2021/08/07 02:39:06;;;;;;;7.43;1.80;;;;;;;32.47;60.31;100955.97;5096943;27;66199;-33
2021/08/07 02:41:56;;;;;;;7.32;2.35;;;;;;;32.29;60.72;100926.94;5102256;27;69691;-33
2021/08/07 02:44:32;;;;;;;9.48;2.35;;;;;;;32.51;60.26;100945.47;5111510;27;65243;-28
2021/08/07 02:47:03;;;;;;;6.32;2.10;;;;;;;32.60;60.23;100957.69;5112236;27;69847;-31
2021/08/07 02:49:35;;;;;;;13.32;2.47;;;;;;;32.64;60.25;100950.72;5115682;27;65753;-29
2021/08/07 02:52:10;;;;;;;6.88;2.10;;;;;;;32.68;60.02;100950.03;5114883;27;70164;-29
2021/08/07 02:54:43;;;;;;;3.95;1.80;;;;;;;32.71;60.15;100946.03;5114725;27;64957;-32
2021/08/07 02:57:17;;;;;;;3.35;1.85;;;;;;;32.72;60.39;100943.06;5097807;27;69673;-30
2021/08/07 02:59:49;;;;;;;10.25;2.33;;;;;;;32.75;60.51;100946.41;5113139;27;66629;-29
2021/08/07 03:02:22;;;;;;;9.40;1.90;;;;;;;32.75;59.37;100941.78;5080995;27;70323;-30
2021/08/07 03:05:01;;;;;;;15.68;2.33;;;;;;;32.81;59.69;100946.28;5115369;27;65237;-31
2021/08/07 03:07:34;;;;;;;5.22;2.15;;;;;;;32.82;59.18;100947.09;5091936;27;69974;-30
2021/08/07 03:10:09;;;;;;;5.72;2.20;;;;;;;32.88;59.11;100947.03;5110020;27;66530;-30
2021/08/07 03:12:44;;;;;;;7.07;1.98;;;;;;;32.90;59.01;100942.19;5116366;27;70535;-33
2021/08/07 03:15:17;;;;;;;3.53;1.65;;;;;;;32.96;58.87;100931.44;5094486;27;67003;-30
2021/08/07 03:17:49;;;;;;;;;;;;;;;32.78;58.52;100940.50;5109501;27;69585;-31
2021/08/07 03:20:32;;;;;;;7.40;1.92;;;;;;;33.02;58.37;100941.41;5114645;27;66389;-33
2021/08/07 03:23:09;;;;;;;6.13;2.08;;;;;;;33.06;58.94;100937.16;5113638;27;70100;-31
2021/08/07 03:25:59;;;;;;;4.97;1.60;;;;;;;33.06;59.16;100931.72;5100042;27;66411;-32
2021/08/07 03:28:31;;;;;;;5.75;1.88;;;;;;;33.00;58.18;100927.22;5112885;27;70492;-30
2021/08/07 03:31:05;;;;;;;15.18;1.70;;;;;;;32.90;57.26;100920.47;5096273;27;65548;-31
2021/08/07 03:33:45;;;;;;;10.60;1.70;;;;;;;32.78;56.45;100916.88;5115199;27;69506;-31
2021/08/07 03:36:18;;;;;;;29.98;1.80;;;;;;;32.71;56.13;100930.56;5113520;27;65634;-30
2021/08/07 03:39:06;;;;;;;27.20;1.40;;;;;;;32.63;54.92;100909.16;5107043;27;71163;-29
2021/08/07 03:41:42;;;;;;;13.30;1.38;;;;;;;32.33;54.03;100879.28;5106632;27;65507;-30
2021/08/07 03:44:14;;;;;;;29.70;1.45;;;;;;;32.45;53.57;100901.84;5116090;27;70370;-31
2021/08/07 03:46:45;;;;;;;15.77;1.13;;;;;;;32.21;53.31;100870.28;5109031;27;65614;-31
2021/08/07 03:49:16;;;;;;;13.70;1.70;;;;;;;32.32;52.03;100914.78;5105487;27;69893;-33
2021/08/07 03:51:50;;;;;;;13.77;1.13;;;;;;;32.26;51.92;100895.66;5112754;27;66532;-30
2021/08/07 03:54:22;;;;;;;8.68;1.25;;;;;;;32.10;51.02;100869.16;5096373;27;69928;-30
2021/08/07 03:56:58;;;;;;;12.45;0.88;;;;;;;32.12;50.39;100893.34;5111696;27;66169;-33
2021/08/07 03:59:31;;;;;;;16.15;1.05;;;;;;;32.14;50.51;100885.81;5112690;27;69094;-31
2021/08/07 04:02:02;;;;;;;15.13;0.90;;;;;;;32.10;50.41;100890.03;5098780;27;66144;-33
2021/08/07 04:04:34;;;;;;;3.78;1.00;;;;;;;32.07;51.17;100887.75;5115174;27;71630;-30
2021/08/07 04:07:05;;;;;;;9.68;0.88;;;;;;;32.03;50.56;100879.25;5089666;27;66875;-32
2021/08/07 04:09:53;;;;;;;26.00;1.40;;;;;;;32.03;50.34;100884.69;5127860;27;70879;-32
2021/08/07 04:12:24;;;;;;;;;;;;;;;31.76;49.79;100868.72;5111796;27;66282;-31
2021/08/07 04:14:56;;;;;;;;;;;;;;;31.72;49.66;100869.38;5114208;27;70234;-31
2021/08/07 04:17:29;;;;;;;10.82;0.98;;;;;;;31.97;49.84;100880.19;5100971;27;66605;-31
2021/08/07 04:20:01;;;;;;;4.80;0.70;;;;;;;31.92;49.80;100872.72;5114113;27;69799;-30
2021/08/07 04:22:33;;;;;;;2.00;0.95;;;;;;;31.91;48.00;100862.06;5130819;27;65780;-30
2021/08/07 04:25:07;;;;;;;7.18;0.80;;;;;;;31.65;48.40;100811.66;5132256;27;69971;-30
2021/08/07 04:27:43;;;;;;;8.07;0.70;;;;;;;31.91;48.02;100848.50;5115357;27;65776;-31
2021/08/07 04:30:15;;;;;;;5.13;0.70;;;;;;;31.85;47.90;100842.13;5111977;27;69458;-31
2021/08/07 04:32:49;;;;;;;3.25;0.65;;;;;;;31.90;47.10;100847.69;5110164;27;66531;-32
2021/08/07 04:35:22;;;;;;;6.70;0.70;;;;;;;31.89;47.67;100843.28;5132835;27;69341;-30
2021/08/07 04:37:57;;;;;;;1.40;0.80;;;;;;;31.88;48.21;100843.53;5114516;27;65495;-30
2021/08/07 04:40:33;;;;;;;3.92;0.70;;;;;;;31.87;48.41;100845.41;5110325;27;70172;-31
2021/08/07 04:43:14;;;;;;;8.65;0.80;;;;;;;31.85;47.63;100839.41;5125004;27;66308;-30
2021/08/07 04:45:45;;;;;;;6.95;0.70;;;;;;;31.85;48.15;100833.16;5112273;27;68198;-31
2021/08/07 04:48:22;;;;;;;6.60;0.60;;;;;;;31.87;47.48;100826.41;5105005;27;65802;-32
2021/08/07 04:51:08;;;;;;;4.00;0.60;;;;;;;31.85;47.23;100825.84;5094713;27;69471;-31
2021/08/07 04:53:45;;;;;;;7.25;0.70;;;;;;;31.85;47.11;100814.97;5093040;27;65541;-30
2021/08/07 04:56:19;;;;;;;1.65;0.65;;;;;;;31.77;46.58;100804.44;5099837;27;70446;-30
2021/08/07 04:58:55;;;;;;;4.95;0.60;;;;;;;31.83;46.87;100807.06;5128227;27;65614;-35
2021/08/07 05:01:32;;;;;;;7.75;0.65;;;;;;;31.81;46.27;100794.78;5125510;27;70183;-30
2021/08/07 05:04:04;;;;;;;3.78;0.40;;;;;;;31.80;46.08;100798.56;5081324;27;66730;-31
2021/08/07 05:06:36;;;;;;;1.80;0.50;;;;;;;31.78;45.40;100800.66;5115305;27;70756;-32
2021/08/07 05:09:09;;;;;;;3.17;0.40;;;;;;;31.79;45.54;100792.31;5128979;27;66522;-30
2021/08/07 05:11:56;;;;;;;4.70;0.50;;;;;;;31.77;44.68;100794.41;5107468;27;69848;-31
2021/08/07 05:14:27;;;;;;;4.43;0.45;;;;;;;31.78;45.21;100789.81;5124617;27;66610;-30
2021/08/07 05:16:59;;;;;;;;;;;;;;;31.54;45.18;100789.72;5109767;27;70338;-36
2021/08/07 05:19:30;;;;;;;19.35;1.02;;;;;;;31.76;46.12;100767.50;5111499;27;66916;-32
2021/08/07 05:22:03;;;;;;;18.38;0.68;;;;;;;31.80;45.81;100774.16;5107924;27;70202;-31
2021/08/07 05:24:35;;;;;;;12.27;0.77;;;;;;;31.77;45.27;100766.47;5107491;27;65530;-32
2021/08/07 05:27:12;;;;;;;2.35;0.50;;;;;;;31.74;44.93;100756.91;5126906;27;70119;-30
2021/08/07 05:29:44;;;;;;;5.93;0.60;;;;;;;31.78;44.42;100762.69;5100324;27;66448;-31
2021/08/07 05:32:16;;;;;;;1.88;0.50;;;;;;;31.77;44.73;100756.44;5110731;27;70777;-31
2021/08/07 05:34:49;;;;;;;7.57;0.70;;;;;;;31.79;44.53;100756.22;5092212;27;65801;-30
2021/08/07 05:37:25;;;;;;;1.05;0.40;;;;;;;31.71;43.65;100730.25;5106956;27;69698;-31
2021/08/07 05:39:59;;;;;;;5.45;0.50;;;;;;;31.75;43.70;100736.84;5093629;27;66747;-31
2021/08/07 05:42:35;;;;;;;19.00;0.85;;;;;;;31.77;43.73;100729.31;5105684;27;70162;-30
2021/08/07 05:45:08;;;;;;;30.73;1.00;;;;;;;31.76;43.68;100734.97;5116163;27;65999;-30
2021/08/07 05:47:41;;;;;;;28.55;1.02;;;;;;;31.76;43.45;100715.97;5104642;27;69268;-29
2021/08/07 05:50:13;;;;;;;45.00;1.88;;;;;;;31.78;44.68;100713.88;5112259;27;64160;-28
2021/08/07 05:52:44;;;;;;;21.00;0.95;;;;;;;31.72;44.29;100698.53;5107808;27;70354;-29
2021/08/07 05:55:16;;;;;;;16.77;0.80;;;;;;;31.80;43.56;100711.78;5113692;27;65787;-29
2021/08/07 05:57:46;;;;;;;15.90;1.23;;;;;;;31.82;44.18;100712.38;5114356;27;70721;-30
2021/08/07 06:00:20;;;;;;;23.50;0.80;;;;;;;31.85;44.07;100705.66;5092437;27;65310;-28
2021/08/07 06:02:55;;;;;;;11.48;0.93;;;;;;;31.86;43.15;100705.41;5098378;27;70554;-30
2021/08/07 06:05:30;;;;;;;12.18;0.85;;;;;;;31.85;42.87;100692.09;5115577;27;65921;-29
2021/08/07 06:08:04;;;;;;;14.40;1.00;;;;;;;31.86;42.97;100693.75;5116631;27;69120;-30
2021/08/07 06:10:37;;;;;;;2.42;0.50;;;;;;;31.85;42.59;100692.94;5113865;27;65458;-29
2021/08/07 06:13:08;;;;;;;3.08;0.50;;;;;;;31.85;42.66;100689.38;5118681;27;70042;-30
2021/08/07 06:15:40;;;;;;;0.93;0.43;;;;;;;31.87;41.83;100685.34;5112420;27;66520;-29
2021/08/07 06:18:10;;;;;;;1.60;0.50;;;;;;;31.82;42.07;100664.38;5116331;27;70784;-30
2021/08/07 06:20:44;;;;;;;2.17;0.60;;;;;;;31.87;41.50;100673.69;5127419;27;66022;-29
2021/08/07 06:23:15;;;;;;;1.33;0.50;;;;;;;31.88;41.64;100664.50;5120709;27;70175;-29
2021/08/07 06:25:47;;;;;;;2.45;0.60;;;;;;;31.89;42.15;100666.97;5117051;27;66394;-29
2021/08/07 06:28:18;;;;;;;5.05;0.63;;;;;;;31.88;40.79;100661.78;5114975;27;69849;-29
2021/08/07 06:30:49;;;;;;;1.20;0.55;;;;;;;31.85;41.40;100649.53;5114486;27;66306;-29
2021/08/07 06:33:24;;;;;;;3.88;0.50;;;;;;;31.88;41.55;100651.78;5100090;27;69969;-29
2021/08/07 06:35:55;;;;;;;1.85;0.70;;;;;;;31.92;41.34;100650.25;5112131;27;66525;-29
2021/08/07 06:38:30;;;;;;;0.80;0.40;;;;;;;31.92;41.55;100639.41;5093433;27;70062;-29
2021/08/07 06:41:02;;;;;;;1.20;0.60;;;;;;;31.93;40.78;100637.53;5116953;27;66238;-29
2021/08/07 06:43:35;;;;;;;0.93;0.60;;;;;;;31.92;40.50;100628.56;5094506;27;70150;-28
2021/08/07 06:46:20;;;;;;;0.93;0.60;;;;;;;31.93;40.73;100635.66;5113557;27;65879;-29
2021/08/07 06:48:51;;;;;;;2.90;0.40;;;;;;;31.94;40.51;100621.03;5118356;27;70726;-29
2021/08/07 06:51:21;;;;;;;0.80;0.52;;;;;;;31.94;40.75;100621.03;5109344;27;66165;-29
2021/08/07 06:53:52;;;;;;;1.42;0.68;;;;;;;31.95;40.22;100617.25;5113761;27;69548;-30
2021/08/07 06:56:23;;;;;;;1.45;0.60;;;;;;;31.96;40.18;100620.81;5119120;27;66884;-30
2021/08/07 06:58:53;;;;;;;3.50;0.40;;;;;;;31.93;40.30;100613.97;5109370;27;70934;-30
2021/08/07 07:01:25;;;;;;;1.75;0.52;;;;;;;31.95;40.15;100619.94;5112354;27;65352;-29
2021/08/07 07:03:56;;;;;;;3.85;0.57;;;;;;;31.98;40.71;100610.53;5117790;27;70245;-30
2021/08/07 07:06:26;;;;;;;0.85;0.60;;;;;;;31.99;39.75;100610.28;5114996;27;66454;-29
2021/08/07 07:08:57;;;;;;;1.00;0.70;;;;;;;31.99;40.37;100601.34;5115878;27;71207;-29
2021/08/07 07:11:28;;;;;;;2.55;1.60;;;;;;;31.82;42.68;100579.47;5114673;27;65871;-31
2021/08/07 07:13:58;;;;;;;5.03;1.77;;;;;;;32.09;43.07;100600.75;5114179;27;69727;-30
2021/08/07 07:16:31;;;;;;;4.35;1.52;;;;;;;32.12;42.50;100594.84;5130167;27;66752;-31
2021/08/07 07:19:03;;;;;;;2.53;1.80;;;;;;;32.13;42.01;100593.81;5081082;27;69936;-34
2021/08/07 07:21:34;;;;;;;1.88;1.50;;;;;;;32.16;41.92;100590.63;5112436;27;66320;-29
2021/08/07 07:24:05;;;;;;;1.95;1.00;;;;;;;32.18;41.57;100593.88;5105290;27;70011;-31
2021/08/07 07:26:36;;;;;;;4.47;1.10;;;;;;;32.09;41.32;100565.47;5114065;27;66218;-34
2021/08/07 07:29:10;;;;;;;1.30;1.20;;;;;;;32.19;40.81;100584.72;5114186;27;70228;-34
2021/08/07 07:31:41;;;;;;;9.50;1.30;;;;;;;32.18;41.61;100588.47;5115389;27;65514;-35
2021/08/07 07:34:15;;;;;;;18.58;1.13;;;;;;;32.15;41.58;100572.66;5129573;27;70667;-30
2021/08/07 07:36:46;;;;;;;12.48;1.50;;;;;;;32.22;41.75;100567.94;5096571;27;66650;-31
2021/08/07 07:39:17;;;;;;;3.88;1.00;;;;;;;32.22;41.84;100567.94;5115213;27;70004;-32
2021/08/07 07:41:48;;;;;;;5.90;1.30;;;;;;;32.18;40.97;100564.03;5116574;27;66109;-32
2021/08/07 07:44:19;;;;;;;11.20;0.88;;;;;;;32.21;41.33;100567.13;5112514;27;69887;-31
2021/08/07 07:46:51;;;;;;;7.78;0.80;;;;;;;32.15;40.73;100557.22;5102786;27;66378;-31
2021/08/07 07:49:22;;;;;;;8.43;1.02;;;;;;;32.16;40.77;100566.19;5114155;27;70510;-32
2021/08/07 07:51:52;;;;;;;12.00;1.00;;;;;;;32.17;40.94;100551.53;5117627;27;66229;-31
2021/08/07 07:54:26;;;;;;;12.02;1.00;;;;;;;32.16;41.26;100552.63;5116616;27;69390;-31
2021/08/07 07:56:58;;;;;;;9.32;1.38;;;;;;;32.18;42.50;100545.91;5123857;27;65481;-32
2021/08/07 07:59:31;;;;;;;5.90;1.52;;;;;;;32.19;42.44;100552.97;5101170;27;69990;-35
2021/08/07 08:02:06;;;;;;;4.43;1.13;;;;;;;32.18;42.69;100539.63;5095972;27;66767;-32
2021/08/07 08:04:37;;;;;;;5.88;1.70;;;;;;;32.19;42.35;100535.84;5115538;27;69949;-31
2021/08/07 08:07:09;;;;;;;2.63;1.67;;;;;;;32.19;43.02;100535.84;5091495;27;66197;-32
2021/08/07 08:09:39;;;;;;;2.60;2.40;;;;;;;32.23;45.39;100531.59;5118184;27;70240;-32
2021/08/07 08:12:39;;;;;;;5.85;2.28;;;;;;;32.40;46.85;100548.81;5117041;27;65586;-30
2021/08/07 08:15:24;;;;;;;8.88;2.80;;;;;;;32.51;50.63;100530.84;5122130;27;70242;-30
2021/08/07 08:17:55;;;;;;;3.30;3.00;;;;;;;32.72;50.48;100551.94;5107711;27;66366;-30
2021/08/07 08:20:26;;;;;;;3.78;3.10;;;;;;;32.87;52.00;100537.84;5096374;27;69197;-31
2021/08/07 08:22:59;;;;;;;3.88;2.95;;;;;;;33.00;51.89;100541.38;5109657;27;43918;-30
2021/08/07 08:25:30;;;;;;;8.02;3.30;;;;;;;33.09;52.11;100537.19;5095423;27;69443;-31
2021/08/07 08:28:12;;;;;;;;;;;;;;;33.00;55.06;100530.50;5106141;27;66286;-32
2021/08/07 08:30:44;;;;;;;3.50;3.20;;;;;;;33.28;52.88;100538.63;5087618;27;70829;-32
2021/08/07 08:33:17;;;;;;;3.75;3.45;;;;;;;33.34;53.69;100536.81;5111472;27;66473;-31
2021/08/07 08:35:48;;;;;;;7.18;3.42;;;;;;;33.46;53.98;100534.03;5110232;27;69348;-30
2021/08/07 08:38:28;;;;;;;6.82;3.78;;;;;;;33.54;53.90;100531.78;5101724;27;66648;-31
2021/08/07 08:41:00;;;;;;;;;;;;;;;33.41;55.40;100531.25;5129246;27;69841;-30
2021/08/07 08:43:33;;;;;;;4.18;3.78;;;;;;;33.64;54.14;100528.38;5112018;27;66553;-32
2021/08/07 08:46:07;;;;;;;5.78;3.60;;;;;;;33.73;54.47;100528.78;5113666;27;69984;-30
2021/08/07 08:48:39;;;;;;;3.50;3.30;;;;;;;33.72;54.62;100527.97;5114677;27;66510;-30
2021/08/07 08:51:14;;;;;;;4.53;4.10;;;;;;;33.71;55.52;100510.00;5106944;27;70323;-31
2021/08/07 08:53:46;;;;;;;7.45;4.60;;;;;;;33.90;55.27;100539.66;5112700;27;65681;-30
2021/08/07 08:56:35;;;;;;;4.43;4.03;;;;;;;33.90;56.35;100523.34;5107303;27;69230;-30
2021/08/07 08:59:10;;;;;;;5.22;4.70;;;;;;;33.95;56.22;100526.13;5102044;27;65343;-30
2021/08/07 09:01:41;;;;;;;6.45;5.28;;;;;;;33.98;55.96;100521.00;5106726;27;70003;-30
2021/08/07 09:04:17;;;;;;;5.53;4.97;;;;;;;34.02;56.25;100522.16;5111009;27;66358;-30
2021/08/07 09:06:48;;;;;;;6.85;5.85;;;;;;;34.05;56.89;100520.88;5113088;27;70764;-30
2021/08/07 09:09:38;;;;;;;10.05;6.80;;;;;;;34.05;57.30;100514.63;5111407;27;65550;-30
2021/08/07 09:12:14;;;;;;;9.68;8.88;;;;;;;34.09;56.84;100510.31;5109997;27;70569;-30
2021/08/07 09:14:50;;;;;;;11.68;10.50;;;;;;;34.04;56.74;100500.13;5109972;27;66516;-30
2021/08/07 09:17:25;;;;;;;13.00;11.80;;;;;;;34.13;56.42;100509.56;5105295;27;70165;-31
2021/08/07 09:20:02;;;;;;;18.98;13.13;;;;;;;34.12;57.31;100505.16;5111556;27;66362;-30
2021/08/07 09:22:33;;;;;;;22.45;14.77;;;;;;;34.14;57.20;100513.91;5108239;27;70136;-29
2021/08/07 09:25:33;;;;;;;16.13;12.43;;;;;;;34.15;57.25;100515.56;5100936;27;66428;-30
2021/08/07 09:28:04;;;;;;;22.98;13.10;;;;;;;34.19;57.58;100505.00;5114039;27;70239;-31
2021/08/07 09:30:43;;;;;;;33.50;17.47;;;;;;;34.30;58.09;100522.28;5106884;27;66036;-33
2021/08/07 09:33:24;;;;;;;19.92;13.98;;;;;;;34.26;59.00;100511.91;5106159;27;69080;-33
2021/08/07 09:36:14;;;;;;;21.08;13.30;;;;;;;34.24;57.94;100524.94;5099854;27;65346;-32
2021/08/07 09:38:46;;;;;;;22.52;13.38;;;;;;;34.31;58.72;100518.50;5116579;27;70064;-31
2021/08/07 09:41:17;;;;;;;21.27;10.55;;;;;;;34.36;57.60;100529.47;5111208;27;66150;-31
2021/08/07 09:43:56;;;;;;;20.63;8.63;;;;;;;34.42;56.78;100531.16;5099200;27;69492;-31
2021/08/07 09:46:27;;;;;;;10.60;8.45;;;;;;;34.48;56.36;100524.69;5114350;27;65758;-30
2021/08/07 09:49:05;;;;;;;8.02;7.15;;;;;;;34.58;55.92;100535.75;5113386;27;70208;-34
2021/08/07 09:51:53;;;;;;;12.00;8.98;;;;;;;34.41;55.29;100496.84;5112318;27;65969;-31
2021/08/07 09:54:37;;;;;;;8.77;7.53;;;;;;;34.66;55.96;100529.03;5113201;27;70066;-31
2021/08/07 09:57:30;;;;;;;10.45;7.68;;;;;;;34.78;56.01;100542.53;5110884;27;66484;-31
2021/08/07 10:00:05;;;;;;;14.43;8.70;;;;;;;34.83;55.61;100542.59;5118020;27;69866;-31
2021/08/07 10:02:44;;;;;;;11.80;8.98;;;;;;;34.87;55.33;100533.63;5113159;27;65596;-31
2021/08/07 10:05:27;;;;;;;13.43;10.65;;;;;;;34.47;54.91;100463.16;5114951;27;69526;-32
2021/08/07 10:08:04;;;;;;;19.58;12.77;;;;;;;34.92;54.64;100533.69;5099824;27;66293;-31
2021/08/07 10:10:50;;;;;;;12.88;11.43;;;;;;;34.95;54.93;100542.44;5099332;27;70167;-33
2021/08/07 10:13:26;;;;;;;14.27;12.40;;;;;;;34.94;55.46;100533.44;5122877;27;66271;-31
2021/08/07 10:16:13;;;;;;;12.35;11.05;;;;;;;34.97;55.12;100530.19;5115829;27;69658;-31
2021/08/07 10:18:45;;;;;;;11.93;10.70;;;;;;;34.96;54.85;100523.09;5113324;27;66498;-31
2021/08/07 10:21:20;;;;;;;15.48;13.90;;;;;;;35.01;54.48;100527.78;5129781;27;70083;-31
2021/08/07 10:23:55;;;;;;;15.93;14.23;;;;;;;35.02;54.13;100518.50;5117252;27;65181;-32
2021/08/07 10:26:27;;;;;;;23.52;13.80;;;;;;;34.94;54.47;100506.19;5113273;27;69999;-30
2021/08/07 10:29:03;;;;;;;15.32;12.48;;;;;;;34.82;54.47;100492.69;5107910;27;65047;-30
2021/08/07 10:31:37;;;;;;;15.02;13.20;;;;;;;35.01;54.35;100517.69;5129775;27;69708;-31
2021/08/07 10:34:11;;;;;;;18.63;14.52;;;;;;;35.03;54.30;100520.16;5108867;27;66465;-31
2021/08/07 10:36:43;;;;;;;25.05;17.98;;;;;;;35.03;53.73;100531.91;5116340;27;70698;-32
2021/08/07 10:39:14;;;;;;;18.40;16.52;;;;;;;34.97;53.59;100532.94;5112336;27;66468;-31
2021/08/07 10:41:47;;;;;;;17.25;15.35;;;;;;;34.77;53.41;100494.53;5080933;27;70394;-31
2021/08/07 10:44:18;;;;;;;23.20;18.70;;;;;;;34.98;53.21;100534.56;5109246;27;66619;-31
2021/08/07 10:46:55;;;;;;;27.85;20.10;;;;;;;35.02;53.05;100545.75;5092424;27;69742;-30
2021/08/07 10:49:39;;;;;;;20.42;17.95;;;;;;;34.95;53.30;100543.25;5113357;27;66169;-30
2021/08/07 10:52:23;;;;;;;29.85;20.83;;;;;;;34.97;53.51;100549.28;5107475;27;70268;-31
2021/08/07 10:54:55;;;;;;;28.77;19.33;;;;;;;34.75;53.97;100526.69;5115840;27;66540;-30
2021/08/07 10:57:35;;;;;;;23.13;19.85;;;;;;;34.96;53.80;100557.69;5113447;27;70101;-30
2021/08/07 11:00:29;;;;;;;25.67;18.67;;;;;;;34.61;54.79;100524.34;5111524;27;67430;-31
2021/08/07 11:03:14;;;;;;;26.50;20.65;;;;;;;34.57;55.26;100546.91;5114451;27;69254;-32
2021/08/07 11:05:50;;;;;;;27.88;20.65;;;;;;;34.68;55.49;100579.44;5116931;27;65641;-30
2021/08/07 11:08:21;;;;;;;40.70;20.70;;;;;;;34.58;55.84;100584.78;5114981;27;71821;-31
2021/08/07 11:10:52;;;;;;;28.85;22.33;;;;;;;34.54;56.06;100594.50;5112847;27;65888;-29
2021/08/07 11:13:27;;;;;;;35.25;23.40;;;;;;;34.49;55.78;100588.97;5115070;27;70326;-31
2021/08/07 11:16:17;;;;;;;42.33;22.65;;;;;;;34.36;56.62;100600.25;5114090;27;64717;-30
2021/08/07 11:18:48;;;;;;;39.42;23.20;;;;;;;34.38;56.70;100604.38;5115279;27;70280;-32
2021/08/07 11:21:52;;;;;;;36.63;22.45;;;;;;;34.29;57.61;100596.88;5111892;27;66280;-30
2021/08/07 11:24:48;;;;;;;32.85;23.58;;;;;;;34.21;57.74;100607.13;5116319;27;69089;-31
2021/08/07 11:27:46;;;;;;;39.72;23.45;;;;;;;34.22;57.39;100616.13;5109225;27;66097;-30
2021/08/07 11:30:19;;;;;;;;;;;;;;;34.03;57.95;100620.97;5110456;27;70208;-31
2021/08/07 11:32:56;;;;;;;36.53;22.67;;;;;;;34.17;56.42;100621.47;5113257;27;65804;-31
2021/08/07 11:35:34;;;;;;;37.65;22.00;;;;;;;34.00;55.70;100616.03;5117268;27;69820;-28
2021/08/07 11:38:33;;;;;;;24.08;19.75;;;;;;;33.54;54.86;100574.44;5116052;27;65738;-31
2021/08/07 11:41:08;;;;;;;21.05;16.23;;;;;;;33.62;54.11;100614.00;5112365;27;69596;-35
2021/08/07 11:43:41;;;;;;;33.65;15.23;;;;;;;33.41;53.40;100618.25;5111313;27;65287;-30
2021/08/07 11:46:14;;;;;;;23.25;14.05;;;;;;;33.09;52.35;100589.66;5110023;27;69454;-30
2021/08/07 11:48:50;;;;;;;26.20;12.48;;;;;;;33.16;52.41;100635.72;5111971;27;66672;-30
2021/08/07 11:51:26;;;;;;;17.13;11.00;;;;;;;33.02;51.29;100629.75;5115948;27;69142;-31
2021/08/07 11:53:56;;;;;;;21.75;11.30;;;;;;;32.98;52.20;100635.84;5115030;27;65174;-30
2021/08/07 11:56:32;;;;;;;23.42;9.05;;;;;;;32.89;51.39;100638.94;5116074;27;69323;-31
2021/08/07 11:59:03;;;;;;;25.52;8.88;;;;;;;32.79;50.41;100648.75;5115249;27;66263;-30
2021/08/07 12:01:38;;;;;;;18.77;7.67;;;;;;;32.71;50.22;100636.41;5114573;27;70058;-30